Time;durP1;ratioP1;P1;durP2;ratioP2;P2;SDS_P1;SDS_P2;PMS_P1;PMS_P2;Temp;Humidity;BMP_temperature;BMP_pressure;BME280_temperature;BME280_humidity;BME280_pressure;Samples;Min_cycle;Max_cycle;Signal;HPM_P1;HPM_P2
2020/12/03 00:01:24;;;;;;;38.27;20.77;;;8.50;81.40;;;;;;5082989;28;20028;-81
2020/12/03 00:04:10;;;;;;;32.77;19.47;;;8.60;81.00;;;;;;5073977;28;20036;-81
2020/12/03 00:06:41;;;;;;;34.00;21.23;;;8.50;81.30;;;;;;5088678;28;20038;-82
2020/12/03 00:09:10;;;;;;;35.87;20.83;;;8.50;80.90;;;;;;5085654;28;20470;-81
2020/12/03 00:11:59;;;;;;;40.90;21.93;;;8.50;81.00;;;;;;5063992;28;20039;-82
2020/12/03 00:14:45;;;;;;;34.93;21.27;;;8.50;81.10;;;;;;5063422;27;20035;-82
2020/12/03 00:17:30;;;;;;;36.03;20.73;;;8.50;80.90;;;;;;5088089;27;20070;-82
2020/12/03 00:20:17;;;;;;;32.47;19.67;;;8.50;81.80;;;;;;5051743;28;20036;-81
2020/12/03 00:22:43;;;;;;;36.00;21.60;;;8.60;81.20;;;;;;5076617;28;20080;-82
2020/12/03 00:25:29;;;;;;;37.43;20.73;;;8.60;80.80;;;;;;5067712;27;20052;-83
2020/12/03 00:28:15;;;;;;;33.80;20.10;;;8.50;81.00;;;;;;5067747;28;20268;-83
2020/12/03 00:30:45;;;;;;;36.60;20.77;;;8.60;81.20;;;;;;5077206;28;20043;-84
2020/12/03 00:33:31;;;;;;;35.80;22.40;;;8.60;81.20;;;;;;5052425;28;20984;-83
2020/12/03 00:36:18;;;;;;;37.53;21.13;;;8.50;80.80;;;;;;5068896;27;20054;-84
2020/12/03 00:39:05;;;;;;;39.03;21.40;;;8.50;80.90;;;;;;5068141;28;20313;-83
2020/12/03 00:41:52;;;;;;;35.53;22.13;;;8.70;81.00;;;;;;5065060;27;20047;-83
2020/12/03 00:44:18;;;;;;;43.40;21.23;;;8.50;81.00;;;;;;5073840;28;20048;-83
2020/12/03 00:47:04;;;;;;;42.37;22.23;;;8.50;81.10;;;;;;5065970;27;20056;-82
2020/12/03 00:49:30;;;;;;;39.43;22.07;;;8.50;81.20;;;;;;5084646;27;20491;-83
2020/12/03 00:52:16;;;;;;;36.80;20.50;;;8.60;81.10;;;;;;5067612;27;20047;-83
2020/12/03 00:54:42;;;;;;;40.93;21.20;;;8.60;81.20;;;;;;5090273;28;20123;-83
2020/12/03 00:57:08;;;;;;;41.00;22.77;;;8.60;81.00;;;;;;5070564;28;20060;-82
2020/12/03 00:59:37;;;;;;;36.80;21.90;;;8.80;81.20;;;;;;5088914;28;20066;-83
2020/12/03 01:02:08;;;;;;;41.63;23.27;;;8.70;81.10;;;;;;5070942;28;20039;-82
2020/12/03 01:04:54;;;;;;;43.00;21.60;;;8.60;80.90;;;;;;5055023;27;20051;-82
2020/12/03 01:07:45;;;;;;;41.33;21.97;;;8.60;81.00;;;;;;5079229;27;20058;-82
2020/12/03 01:10:14;;;;;;;45.63;23.80;;;8.60;81.20;;;;;;5071275;28;20562;-82
2020/12/03 01:12:40;;;;;;;48.80;23.43;;;8.60;80.70;;;;;;5075265;27;20050;-83
2020/12/03 01:15:06;;;;;;;44.63;22.97;;;8.70;80.70;;;;;;5058015;28;20126;-81
2020/12/03 01:17:31;;;;;;;43.60;24.20;;;8.60;80.90;;;;;;5059174;28;20055;-82
2020/12/03 01:20:24;;;;;;;41.60;23.30;;;8.60;80.80;;;;;;5072945;28;20065;-82
2020/12/03 01:23:09;;;;;;;41.20;22.30;;;8.60;80.90;;;;;;5080056;28;20066;-82
2020/12/03 01:25:55;;;;;;;44.43;25.10;;;8.60;81.00;;;;;;5078374;28;20489;-82
2020/12/03 01:28:21;;;;;;;36.63;21.90;;;8.60;81.00;;;;;;5091339;27;20084;-82
2020/12/03 01:30:46;;;;;;;43.43;24.30;;;8.60;81.20;;;;;;5104523;27;20143;-82
2020/12/03 01:33:12;;;;;;;40.63;22.20;;;8.50;80.80;;;;;;5089799;27;20028;-82
2020/12/03 01:35:38;;;;;;;42.47;24.23;;;8.50;81.00;;;;;;5088218;27;20039;-82
2020/12/03 01:38:03;;;;;;;41.73;24.00;;;8.60;80.90;;;;;;5075261;27;20035;-82
2020/12/03 01:40:29;;;;;;;40.10;22.37;;;8.60;80.90;;;;;;5095028;27;20272;-82
2020/12/03 01:42:56;;;;;;;34.63;22.57;;;8.60;81.20;;;;;;5068554;28;20156;-83
2020/12/03 01:45:47;;;;;;;41.93;24.17;;;8.60;81.20;;;;;;5070545;28;20098;-82
2020/12/03 01:48:51;;;;;;;38.83;22.97;;;8.70;81.00;;;;;;5111796;27;20069;-82
2020/12/03 01:51:25;;;;;;;41.53;23.47;;;8.70;81.10;;;;;;5076055;28;20043;-82
2020/12/03 01:53:53;;;;;;;29.35;16.77;;;8.70;81.20;;;;;;5087138;28;20040;-81
2020/12/03 01:56:33;;;;;;;34.00;20.50;;;8.60;81.10;;;;;;5058657;28;20064;-81
2020/12/03 01:59:19;;;;;;;39.83;22.70;;;8.60;81.20;;;;;;5081277;28;20495;-81
2020/12/03 02:01:45;;;;;;;34.47;21.80;;;8.60;81.30;;;;;;5070328;28;20032;-81
2020/12/03 02:04:11;;;;;;;40.87;22.20;;;8.60;81.30;;;;;;5085309;28;20024;-81
2020/12/03 02:07:06;;;;;;;38.60;23.23;;;8.70;81.20;;;;;;5050798;27;20127;-81
2020/12/03 02:09:32;;;;;;;36.30;21.03;;;8.70;81.20;;;;;;5064025;27;20028;-82
2020/12/03 02:11:57;;;;;;;45.03;23.93;;;8.60;81.10;;;;;;5084131;28;20496;-82
2020/12/03 02:14:24;;;;;;;39.90;22.93;;;8.60;80.90;;;;;;5092533;28;20101;-82
2020/12/03 02:17:09;;;;;;;41.30;23.43;;;8.70;81.20;;;;;;5068472;28;20051;-80
2020/12/03 02:19:38;;;;;;;44.50;24.37;;;8.70;81.10;;;;;;5069046;28;20400;-81
2020/12/03 02:22:05;;;;;;;38.70;20.90;;;8.70;81.20;;;;;;5088156;28;20419;-81
2020/12/03 02:24:51;;;;;;;37.17;21.37;;;8.60;81.20;;;;;;5060780;27;20053;-81
2020/12/03 02:27:19;;;;;;;44.90;24.07;;;8.70;81.40;;;;;;5083187;28;20091;-80
2020/12/03 02:29:45;;;;;;;38.50;21.90;;;8.70;81.10;;;;;;5073299;28;20032;-80
2020/12/03 02:32:11;;;;;;;39.03;22.43;;;8.70;81.40;;;;;;5058793;28;20148;-79
2020/12/03 02:34:36;;;;;;;40.27;23.70;;;8.80;81.40;;;;;;5109479;27;20082;-80
2020/12/03 02:37:02;;;;;;;43.67;22.50;;;8.70;81.30;;;;;;5067262;28;20036;-80
2020/12/03 02:39:49;;;;;;;48.37;22.17;;;8.80;81.40;;;;;;5076304;28;20052;-81
2020/12/03 02:42:15;;;;;;;45.87;24.00;;;8.80;81.30;;;;;;5098761;28;20043;-80
2020/12/03 02:44:45;;;;;;;40.53;22.70;;;8.80;81.40;;;;;;5103547;27;20400;-79
2020/12/03 02:47:11;;;;;;;44.10;24.10;;;8.80;81.20;;;;;;5071295;28;20032;-82
2020/12/03 02:49:41;;;;;;;41.47;22.47;;;8.80;81.20;;;;;;5052263;28;20054;-80
2020/12/03 02:52:11;;;;;;;42.43;24.37;;;8.80;81.30;;;;;;5087721;28;20046;-80
2020/12/03 02:54:57;;;;;;;45.83;25.73;;;8.80;81.00;;;;;;5087577;28;20027;-80
2020/12/03 02:57:43;;;;;;;47.30;25.73;;;8.80;81.30;;;;;;5078249;28;20050;-81
2020/12/03 03:00:28;;;;;;;41.80;21.73;;;8.80;80.90;;;;;;5067472;28;20101;-80
2020/12/03 03:02:55;;;;;;;46.07;23.67;;;8.80;81.30;;;;;;5108887;27;20028;-81
2020/12/03 03:05:21;;;;;;;45.33;23.63;;;8.80;81.30;;;;;;5059361;28;20122;-80
2020/12/03 03:07:47;;;;;;;39.40;23.83;;;8.80;81.30;;;;;;5080884;28;20429;-81
2020/12/03 03:10:14;;;;;;;39.63;21.87;;;8.80;81.40;;;;;;5106248;28;20034;-81
2020/12/03 03:12:39;;;;;;;46.27;25.20;;;8.80;81.30;;;;;;5063954;28;20044;-81
2020/12/03 03:15:05;;;;;;;43.00;24.93;;;8.90;81.40;;;;;;5066406;28;20044;-80
2020/12/03 03:17:32;;;;;;;44.60;25.27;;;8.80;81.00;;;;;;5079600;28;20036;-81
2020/12/03 03:19:58;;;;;;;47.60;24.93;;;8.80;81.60;;;;;;5082348;28;20043;-81
2020/12/03 03:22:43;;;;;;;42.80;23.17;;;8.80;81.20;;;;;;5063462;28;20047;-80
2020/12/03 03:25:09;;;;;;;48.30;24.90;;;8.80;81.20;;;;;;5083544;28;20044;-80
2020/12/03 03:27:35;;;;;;;43.30;23.03;;;8.90;81.30;;;;;;5083172;28;20177;-78
2020/12/03 03:30:01;;;;;;;46.00;24.83;;;8.90;81.40;;;;;;5086582;28;20031;-81
2020/12/03 03:32:47;;;;;;;48.43;25.13;;;8.80;81.30;;;;;;5088559;28;20043;-81
2020/12/03 03:35:16;;;;;;;45.00;24.73;;;8.90;81.40;;;;;;5089310;28;20118;-81
2020/12/03 03:38:02;;;;;;;47.63;25.47;;;8.90;81.50;;;;;;5065886;28;20044;-81
2020/12/03 03:40:27;;;;;;;45.27;24.83;;;8.90;81.30;;;;;;5081502;28;20157;-81
2020/12/03 03:42:53;;;;;;;49.30;24.80;;;8.90;81.50;;;;;;5085824;28;20036;-81
2020/12/03 03:45:19;;;;;;;54.57;26.20;;;8.90;81.50;;;;;;5072673;28;20081;-81
2020/12/03 03:47:45;;;;;;;52.73;25.93;;;8.90;81.00;;;;;;5060951;28;20082;-81
2020/12/03 03:50:11;;;;;;;46.07;26.67;;;8.80;80.90;;;;;;5087083;28;20036;-81
2020/12/03 03:52:37;;;;;;;50.40;25.27;;;8.80;81.20;;;;;;5109886;27;20042;-81
2020/12/03 03:55:04;;;;;;;55.27;29.00;;;8.80;81.20;;;;;;5074630;28;20088;-81
2020/12/03 03:57:30;;;;;;;50.67;28.47;;;8.90;81.10;;;;;;5085762;28;20060;-81
2020/12/03 03:59:55;;;;;;;46.20;26.27;;;8.90;81.30;;;;;;5086072;28;20125;-81
2020/12/03 04:02:21;;;;;;;50.50;27.03;;;8.90;81.30;;;;;;5080101;28;20051;-81
2020/12/03 04:05:07;;;;;;;50.00;26.60;;;8.90;81.20;;;;;;5070490;27;20130;-81
2020/12/03 04:07:33;;;;;;;51.47;29.10;;;8.90;81.30;;;;;;5072594;28;20078;-81
2020/12/03 04:09:58;;;;;;;55.43;28.83;;;8.90;81.30;;;;;;5086987;28;20032;-81
2020/12/03 04:12:24;;;;;;;49.83;26.70;;;8.90;81.00;;;;;;5089166;28;20473;-81
2020/12/03 04:14:50;;;;;;;46.83;25.90;;;8.90;80.90;;;;;;5108180;27;20038;-81
2020/12/03 04:17:15;;;;;;;57.30;26.60;;;8.90;81.10;;;;;;5107548;27;20074;-81
2020/12/03 04:19:41;;;;;;;51.73;27.03;;;8.90;81.10;;;;;;5084750;28;20050;-81
2020/12/03 04:22:28;;;;;;;49.97;26.70;;;8.90;80.80;;;;;;5088093;27;20047;-81
2020/12/03 04:24:53;;;;;;;55.70;28.57;;;8.90;81.10;;;;;;5101555;28;20032;-81
2020/12/03 04:27:19;;;;;;;50.40;26.30;;;8.90;81.00;;;;;;5086427;28;20038;-80
2020/12/03 04:29:45;;;;;;;49.57;26.50;;;8.90;80.80;;;;;;5077317;28;20096;-81
2020/12/03 04:32:31;;;;;;;53.33;27.87;;;8.90;80.90;;;;;;5076963;27;20054;-80
2020/12/03 04:34:56;;;;;;;49.73;26.47;;;8.90;81.00;;;;;;5063451;28;20443;-81
2020/12/03 04:37:22;;;;;;;56.20;29.50;;;8.90;80.50;;;;;;5085762;28;20494;-81
2020/12/03 04:39:48;;;;;;;51.37;27.80;;;8.90;80.90;;;;;;5106830;27;20060;-81
2020/12/03 04:42:34;;;;;;;48.43;27.53;;;8.90;81.10;;;;;;5074113;28;20067;-80
2020/12/03 04:45:12;;;;;;;52.37;28.37;;;8.90;81.20;;;;;;5072357;28;20388;-81
2020/12/03 04:47:51;;;;;;;51.13;27.50;;;8.90;81.00;;;;;;5082031;28;20036;-81
2020/12/03 04:50:48;;;;;;;53.93;28.27;;;8.90;81.20;;;;;;5080976;27;20040;-81
2020/12/03 04:53:22;;;;;;;52.73;29.50;;;8.90;81.40;;;;;;5091871;28;20054;-81
2020/12/03 04:56:11;;;;;;;54.87;28.63;;;8.80;81.40;;;;;;5074492;28;20035;-81
2020/12/03 04:59:07;;;;;;;54.53;28.63;;;8.80;81.30;;;;;;5067499;28;20048;-81
2020/12/03 05:01:53;;;;;;;54.77;28.70;;;8.80;81.40;;;;;;5106605;27;20035;-81
2020/12/03 05:05:00;;;;;;;52.27;27.73;;;8.80;81.60;;;;;;5070441;28;20056;-82
2020/12/03 05:07:28;;;;;;;54.60;28.70;;;8.80;81.90;;;;;;5088986;28;20043;-81
2020/12/03 05:10:22;;;;;;;57.53;29.67;;;8.70;82.60;;;;;;5068299;28;20085;-81
2020/12/03 05:12:48;;;;;;;59.03;30.40;;;8.70;82.10;;;;;;5084414;28;20092;-80
2020/12/03 05:15:39;;;;;;;55.43;28.47;;;8.70;82.00;;;;;;5102519;28;20369;-81
2020/12/03 05:18:43;;;;;;;63.67;30.27;;;8.70;82.30;;;;;;5081420;27;20087;-81
2020/12/03 05:21:15;;;;;;;58.15;29.00;;;8.70;83.00;;;;;;5081333;27;20043;-81
2020/12/03 05:24:01;;;;;;;54.40;28.93;;;8.70;82.50;;;;;;5049462;28;20062;-81
2020/12/03 05:26:31;;;;;;;100.17;29.87;;;8.60;82.20;;;;;;5087966;28;20120;-81
2020/12/03 05:28:58;;;;;;;55.67;30.13;;;8.60;82.50;;;;;;5072619;28;20036;-80
2020/12/03 05:31:28;;;;;;;51.33;26.77;;;8.60;82.60;;;;;;5089532;28;20031;-81
2020/12/03 05:33:57;;;;;;;56.77;29.80;;;8.60;82.60;;;;;;5088935;28;20051;-80
2020/12/03 05:36:31;;;;;;;60.10;28.77;;;8.70;82.60;;;;;;5078062;28;20040;-81
2020/12/03 05:39:22;;;;;;;54.10;30.20;;;8.70;82.60;;;;;;5066106;28;20222;-81
2020/12/03 05:41:55;;;;;;;62.57;29.27;;;8.70;82.60;;;;;;5089312;28;20039;-80
2020/12/03 05:44:22;;;;;;;58.55;28.52;;;8.70;82.70;;;;;;5051391;28;20043;-80
2020/12/03 05:47:31;;;;;;;51.90;27.83;;;8.60;82.70;;;;;;5072438;28;20482;-80
2020/12/03 05:49:59;;;;;;;51.23;29.27;;;8.70;82.70;;;;;;5078333;28;20050;-80
2020/12/03 05:53:05;;;;;;;56.87;30.00;;;8.70;82.90;;;;;;5082418;27;20043;-81
2020/12/03 05:55:31;;;;;;;57.87;31.03;;;8.70;82.90;;;;;;5059830;28;20062;-80
2020/12/03 05:58:17;;;;;;;51.63;29.47;;;8.70;82.80;;;;;;5085535;28;20395;-81
2020/12/03 06:00:43;;;;;;;56.83;30.00;;;8.70;82.80;;;;;;5087436;28;20036;-81
2020/12/03 06:03:24;;;;;;;56.37;29.50;;;8.60;82.90;;;;;;5083116;28;20036;-81
2020/12/03 06:06:02;;;;;;;53.23;27.33;;;8.70;82.90;;;;;;5086161;28;20036;-81
2020/12/03 06:08:36;;;;;;;51.60;27.50;;;8.70;83.00;;;;;;5100612;28;20036;-81
2020/12/03 06:11:30;;;;;;;49.37;28.53;;;8.70;82.90;;;;;;5088267;28;20039;-81
2020/12/03 06:14:20;;;;;;;50.93;27.27;;;8.60;83.10;;;;;;5090326;28;20024;-81
2020/12/03 06:17:12;;;;;;;52.80;29.30;;;8.60;82.90;;;;;;5105678;28;20055;-81
2020/12/03 06:20:22;;;;;;;50.63;28.50;;;8.70;83.10;;;;;;5075578;28;20063;-81
2020/12/03 06:22:57;;;;;;;49.33;28.10;;;8.70;83.10;;;;;;5103228;27;20035;-81
2020/12/03 06:25:55;;;;;;;50.97;26.57;;;8.70;83.20;;;;;;5084416;28;20043;-82
2020/12/03 06:28:39;;;;;;;50.30;27.97;;;8.70;83.20;;;;;;5088614;28;20127;-81
2020/12/03 06:31:13;;;;;;;49.40;28.93;;;8.70;83.10;;;;;;5100368;28;20031;-81
2020/12/03 06:34:03;;;;;;;48.17;27.40;;;8.70;83.20;;;;;;5085567;28;20123;-81
2020/12/03 06:36:57;;;;;;;49.93;28.80;;;8.70;83.20;;;;;;5077171;27;20134;-81
2020/12/03 06:39:37;;;;;;;47.73;29.30;;;8.80;83.20;;;;;;5068330;28;20423;-81
2020/12/03 06:42:32;;;;;;;45.60;27.23;;;8.80;83.10;;;;;;5083735;28;20027;-81
2020/12/03 06:45:35;;;;;;;48.60;28.10;;;8.80;83.00;;;;;;5036745;28;20070;-81
2020/12/03 06:48:01;;;;;;;48.70;28.07;;;8.70;83.00;;;;;;5107250;28;20035;-81
2020/12/03 06:50:47;;;;;;;53.27;28.37;;;8.70;83.10;;;;;;5085094;27;20047;-81
2020/12/03 06:53:53;;;;;;;88.77;28.63;;;8.80;83.10;;;;;;5062032;28;20044;-80
2020/12/03 06:57:14;;;;;;;46.67;28.73;;;8.80;83.10;;;;;;5072733;28;20059;-80
2020/12/03 07:00:39;;;;;;;49.43;29.20;;;8.80;83.20;;;;;;5086879;28;20507;-80
2020/12/03 07:03:30;;;;;;;50.17;27.03;;;8.80;83.10;;;;;;5053038;28;20100;-80
2020/12/03 07:06:18;;;;;;;47.07;30.13;;;8.70;83.20;;;;;;5111027;27;20103;-82
2020/12/03 07:08:58;;;;;;;47.97;28.30;;;8.70;83.10;;;;;;5103302;28;20069;-80
2020/12/03 07:11:48;;;;;;;49.70;29.43;;;8.70;83.20;;;;;;5088436;28;20028;-81
2020/12/03 07:14:58;;;;;;;37.97;24.50;;;8.70;83.00;;;;;;5092718;28;20048;-80
2020/12/03 07:18:05;;;;;;;42.50;27.10;;;8.70;83.10;;;;;;5076561;28;20102;-80
2020/12/03 07:20:51;;;;;;;42.33;27.33;;;8.60;83.00;;;;;;5055394;28;20115;-82
2020/12/03 07:23:46;;;;;;;40.80;26.90;;;8.60;82.90;;;;;;5066350;28;20454;-80
2020/12/03 07:26:27;;;;;;;39.77;24.80;;;8.60;83.00;;;;;;5065302;28;20039;-80
2020/12/03 07:28:53;;;;;;;43.10;28.33;;;8.70;83.10;;;;;;5071316;28;20027;-81
2020/12/03 07:31:39;;;;;;;37.90;25.67;;;8.70;82.80;;;;;;5046148;28;20426;-81
2020/12/03 07:34:42;;;;;;;58.47;29.00;;;8.70;83.00;;;;;;5075508;28;20048;-80
2020/12/03 07:37:16;;;;;;;59.97;29.10;;;8.70;82.90;;;;;;5068482;28;20024;-80
2020/12/03 07:39:42;;;;;;;60.60;28.93;;;8.70;82.90;;;;;;5085693;28;20028;-79
2020/12/03 07:42:19;;;;;;;50.30;28.90;;;8.70;83.00;;;;;;5081066;28;20504;-81
2020/12/03 07:44:50;;;;;;;56.83;32.90;;;8.70;82.90;;;;;;5085033;28;20106;-80
2020/12/03 07:47:32;;;;;;;47.10;31.83;;;8.70;82.80;;;;;;5072410;28;20039;-80
2020/12/03 07:50:05;;;;;;;52.33;28.97;;;8.70;82.70;;;;;;5052887;28;20044;-80
2020/12/03 07:52:39;;;;;;;46.83;29.67;;;8.80;82.90;;;;;;5084277;28;20086;-80
2020/12/03 07:55:20;;;;;;;54.93;30.80;;;8.70;82.70;;;;;;5072629;28;20024;-79
2020/12/03 07:58:42;;;;;;;96.43;33.93;;;8.80;82.70;;;;;;5084090;28;20052;-81
2020/12/03 08:01:46;;;;;;;56.57;30.70;;;8.80;82.80;;;;;;5047069;28;20051;-80
2020/12/03 08:04:12;;;;;;;46.10;28.37;;;8.80;83.00;;;;;;5085740;28;20039;-79
2020/12/03 08:06:38;;;;;;;48.90;31.00;;;8.80;82.90;;;;;;5081616;28;20054;-80
2020/12/03 08:09:09;;;;;;;48.63;30.93;;;8.80;82.80;;;;;;5083128;28;20036;-80
2020/12/03 08:11:45;;;;;;;53.53;33.37;;;8.80;82.60;;;;;;5080856;28;20040;-82
2020/12/03 08:14:26;;;;;;;50.73;32.53;;;8.80;82.50;;;;;;5083399;28;20031;-80
2020/12/03 08:16:52;;;;;;;50.17;32.80;;;8.80;82.20;;;;;;5081132;28;20052;-81
2020/12/03 08:19:30;;;;;;;56.07;34.00;;;8.80;82.40;;;;;;5084909;28;20036;-80
2020/12/03 08:21:56;;;;;;;52.73;32.37;;;8.80;82.30;;;;;;5060648;28;20040;-82
2020/12/03 08:24:30;;;;;;;49.83;32.80;;;8.80;83.00;;;;;;5082148;28;20076;-79
2020/12/03 08:27:02;;;;;;;49.15;31.92;;;8.80;82.30;;;;;;5064764;28;20036;-79
2020/12/03 08:29:48;;;;;;;50.80;32.57;;;8.80;82.50;;;;;;5064059;28;20043;-80
2020/12/03 08:32:53;;;;;;;58.23;32.83;;;8.80;82.50;;;;;;5095405;27;20039;-80
2020/12/03 08:35:19;;;;;;;47.80;31.73;;;8.80;82.40;;;;;;5090787;28;20377;-81
2020/12/03 08:37:45;;;;;;;51.37;32.37;;;8.70;82.40;;;;;;5086606;27;20133;-81
2020/12/03 08:40:11;;;;;;;42.60;30.27;;;8.80;82.50;;;;;;5075770;28;20063;-81
2020/12/03 08:42:38;;;;;;;42.77;29.83;;;8.80;82.50;;;;;;5088549;27;20039;-80
2020/12/03 08:45:24;;;;;;;47.97;30.77;;;8.80;82.50;;;;;;5065597;28;20533;-80
2020/12/03 08:47:51;;;;;;;54.23;32.03;;;8.80;82.60;;;;;;5041341;28;20100;-80
2020/12/03 08:50:38;;;;;;;49.10;28.90;;;8.80;82.50;;;;;;5065513;27;20579;-81
2020/12/03 08:53:08;;;;;;;51.03;31.27;;;8.90;82.70;;;;;;5075217;28;20123;-80
2020/12/03 08:56:04;;;;;;;47.13;30.63;;;8.90;82.60;;;;;;5065492;28;20408;-81
2020/12/03 08:59:05;;;;;;;47.30;28.43;;;8.90;82.50;;;;;;5060935;27;20054;-79
2020/12/03 09:01:43;;;;;;;49.40;31.50;;;8.90;82.60;;;;;;5084600;27;20039;-82
2020/12/03 09:04:09;;;;;;;47.97;29.67;;;8.90;82.60;;;;;;5054952;28;20031;-83
2020/12/03 09:06:49;;;;;;;51.17;30.40;;;8.90;83.40;;;;;;5083011;27;20128;-80
2020/12/03 09:09:22;;;;;;;48.30;31.30;;;9.00;82.70;;;;;;5082037;28;20036;-81
2020/12/03 09:12:08;;;;;;;45.57;29.53;;;9.00;82.60;;;;;;5072791;28;20067;-82
2020/12/03 09:14:35;;;;;;;47.30;30.10;;;8.90;82.60;;;;;;5066905;28;20180;-81
2020/12/03 09:17:04;;;;;;;43.77;28.23;;;9.00;82.60;;;;;;5081721;27;20039;-81
2020/12/03 09:19:30;;;;;;;52.17;30.73;;;9.00;82.30;;;;;;5061128;27;20032;-80
2020/12/03 09:21:56;;;;;;;45.03;29.23;;;9.00;82.20;;;;;;5105076;27;20067;-81
2020/12/03 09:24:23;;;;;;;46.87;30.27;;;9.00;82.20;;;;;;5087126;28;20097;-80
2020/12/03 09:26:49;;;;;;;43.73;28.20;;;9.00;82.00;;;;;;5083204;28;20129;-80
2020/12/03 09:29:35;;;;;;;46.33;28.17;;;9.00;82.00;;;;;;5071611;27;20071;-81
2020/12/03 09:32:05;;;;;;;44.60;27.80;;;9.00;82.10;;;;;;5078355;28;20035;-80
2020/12/03 09:34:34;;;;;;;43.40;28.53;;;9.10;82.10;;;;;;5049113;27;20048;-79
2020/12/03 09:37:19;;;;;;;42.83;28.30;;;9.10;82.00;;;;;;5058154;28;20055;-80
2020/12/03 09:39:45;;;;;;;45.57;28.33;;;9.10;82.00;;;;;;5078933;27;20036;-81
2020/12/03 09:42:36;;;;;;;46.63;27.80;;;9.10;81.90;;;;;;5048527;28;20046;-81
2020/12/03 09:45:07;;;;;;;39.57;25.80;;;9.20;82.00;;;;;;5104948;27;20047;-82
2020/12/03 09:47:33;;;;;;;49.83;29.03;;;9.10;81.60;;;;;;5088568;27;20118;-82
2020/12/03 09:49:59;;;;;;;43.47;25.20;;;9.20;81.40;;;;;;5062145;28;20039;-80
2020/12/03 09:52:44;;;;;;;41.33;26.73;;;9.20;81.30;;;;;;5062360;27;21968;-81
2020/12/03 09:55:11;;;;;;;43.70;27.00;;;9.20;81.20;;;;;;5057578;28;20043;-81
2020/12/03 09:57:57;;;;;;;40.67;26.80;;;9.20;81.40;;;;;;5085159;27;20051;-82
2020/12/03 10:00:33;;;;;;;49.33;27.40;;;9.20;81.30;;;;;;5064533;27;20136;-80
2020/12/03 10:03:43;;;;;;;45.43;27.43;;;9.20;81.10;;;;;;5059572;27;20993;-79
2020/12/03 10:06:11;;;;;;;44.00;27.37;;;9.20;80.90;;;;;;5088820;28;20089;-82
2020/12/03 10:09:03;;;;;;;45.27;26.47;;;9.10;80.80;;;;;;5078372;28;20047;-82
2020/12/03 10:11:46;;;;;;;46.33;28.60;;;9.20;81.30;;;;;;5082891;28;20543;-81
2020/12/03 10:14:32;;;;;;;44.95;25.35;;;9.20;81.70;;;;;;5098679;27;20424;-81
2020/12/03 10:17:05;;;;;;;46.17;25.40;;;9.20;81.40;;;;;;5104548;27;20055;-81
2020/12/03 10:19:51;;;;;;;38.10;25.53;;;9.20;81.60;;;;;;5063261;27;20054;-81
2020/12/03 10:22:47;;;;;;;40.93;25.07;;;9.20;81.70;;;;;;5063782;27;20046;-84
2020/12/03 10:25:33;;;;;;;43.90;25.53;;;9.30;81.70;;;;;;5059491;27;20047;-82
2020/12/03 10:28:16;;;;;;;42.83;23.63;;;9.30;81.40;;;;;;5064738;27;20058;-82
2020/12/03 10:30:41;;;;;;;42.27;26.27;;;9.30;81.40;;;;;;5067637;27;20824;-82
2020/12/03 10:33:29;;;;;;;37.27;24.50;;;9.30;81.50;;;;;;5074908;27;20048;-82
2020/12/03 10:35:56;;;;;;;42.13;29.27;;;9.30;81.50;;;;;;5071665;27;20032;-83
2020/12/03 10:38:45;;;;;;;42.00;24.93;;;9.30;81.30;;;;;;5072323;27;20040;-81
2020/12/03 10:41:11;;;;;;;53.67;31.60;;;9.30;82.10;;;;;;5076063;27;20031;-80
2020/12/03 10:43:57;;;;;;;44.23;27.83;;;9.30;81.10;;;;;;5058321;28;20053;-82
2020/12/03 10:46:24;;;;;;;41.30;24.93;;;9.30;81.50;;;;;;5070708;27;20054;-81
2020/12/03 10:49:10;;;;;;;46.33;29.90;;;9.30;81.30;;;;;;5064110;27;20061;-81
2020/12/03 10:51:42;;;;;;;52.23;33.43;;;9.20;81.50;;;;;;5073417;28;20031;-80
2020/12/03 10:54:08;;;;;;;39.47;23.97;;;9.20;81.50;;;;;;5075599;27;20035;-79
2020/12/03 10:56:37;;;;;;;38.13;24.20;;;9.20;81.70;;;;;;5076551;28;20106;-80
2020/12/03 10:59:09;;;;;;;38.77;21.70;;;9.20;81.60;;;;;;5086988;27;20069;-82
2020/12/03 11:01:56;;;;;;;34.53;21.80;;;9.20;81.70;;;;;;5090636;27;20035;-84
2020/12/03 11:04:42;;;;;;;38.43;22.87;;;9.20;81.90;;;;;;5065968;28;20126;-82
2020/12/03 11:07:09;;;;;;;36.93;22.03;;;9.30;81.80;;;;;;5109628;27;20109;-82
2020/12/03 11:09:54;;;;;;;31.50;20.37;;;9.20;81.80;;;;;;5064202;27;20086;-81
2020/12/03 11:12:20;;;;;;;30.73;20.13;;;9.20;81.90;;;;;;5077653;27;20036;-81
2020/12/03 11:14:46;;;;;;;26.53;18.50;;;9.20;81.80;;;;;;5077511;28;20116;-80
2020/12/03 11:17:22;;;;;;;33.50;19.93;;;9.20;81.70;;;;;;5058721;28;20039;-82
2020/12/03 11:19:52;;;;;;;26.80;18.43;;;9.20;81.60;;;;;;5107335;28;20112;-82
2020/12/03 11:22:38;;;;;;;25.03;17.40;;;9.20;81.80;;;;;;5059179;28;20355;-83
2020/12/03 11:25:05;;;;;;;26.13;17.60;;;9.10;81.20;;;;;;5083098;28;20016;-82
2020/12/03 11:27:51;;;;;;;22.47;16.17;;;9.10;81.10;;;;;;5067791;28;20044;-82
2020/12/03 11:30:18;;;;;;;29.07;18.33;;;9.10;81.60;;;;;;5066678;28;20039;-83
2020/12/03 11:33:04;;;;;;;23.73;16.37;;;9.10;81.70;;;;;;5050154;28;20057;-82
2020/12/03 11:35:31;;;;;;;22.57;15.43;;;9.10;81.70;;;;;;5068968;28;20068;-82
2020/12/03 11:38:17;;;;;;;21.27;14.70;;;9.10;81.60;;;;;;5067543;28;20052;-83
2020/12/03 11:40:52;;;;;;;26.53;18.87;;;9.20;81.70;;;;;;5047807;28;20032;-81
2020/12/03 11:48:44;;;;;;;21.47;13.30;;;9.20;80.90;;;;;;5065207;28;20027;-81
2020/12/03 11:51:28;;;;;;;19.27;13.40;;;9.20;80.90;;;;;;5064254;28;20388;-82
2020/12/03 11:54:02;;;;;;;20.00;13.77;;;9.20;81.00;;;;;;5082717;28;20028;-83
2020/12/03 11:56:28;;;;;;;;;;;9.20;81.30;;;;;;5078144;28;20115;-82
2020/12/03 11:59:19;;;;;;;23.67;15.03;;;9.20;81.20;;;;;;5074872;28;19928;-80
2020/12/03 12:01:53;;;;;;;24.27;14.43;;;9.10;81.00;;;;;;5078334;28;20047;-83
2020/12/03 12:04:23;;;;;;;26.38;16.00;;;9.10;81.50;;;;;;5069562;28;20038;-82
2020/12/03 12:12:15;;;;;;;25.40;16.27;;;9.10;81.50;;;;;;5090402;28;20147;-81
2020/12/03 12:15:01;;;;;;;25.60;16.27;;;9.00;81.60;;;;;;5077231;28;20040;-82
2020/12/03 12:17:29;;;;;;;25.47;15.37;;;9.10;81.70;;;;;;5066319;28;20042;-82
2020/12/03 12:20:15;;;;;;;23.97;15.70;;;9.10;81.50;;;;;;5064354;28;20040;-81
2020/12/03 12:23:01;;;;;;;25.23;15.37;;;9.10;81.20;;;;;;5086414;28;20125;-84
2020/12/03 12:25:27;;;;;;;25.77;15.73;;;9.10;81.40;;;;;;5081846;28;20616;-83
2020/12/03 12:28:14;;;;;;;19.67;14.20;;;9.20;81.40;;;;;;5074512;28;20066;-80
2020/12/03 12:30:40;;;;;;;21.53;15.10;;;9.20;81.30;;;;;;5073065;28;20539;-84
2020/12/03 12:33:06;;;;;;;23.63;16.80;;;9.20;81.30;;;;;;5085292;27;20092;-82
2020/12/03 12:35:32;;;;;;;23.03;15.53;;;9.20;81.10;;;;;;5078271;28;20051;-84
2020/12/03 12:37:58;;;;;;;21.70;14.40;;;9.20;81.10;;;;;;5086608;28;20476;-82
2020/12/03 12:40:23;;;;;;;21.30;15.87;;;9.30;80.50;;;;;;5104096;27;20043;-83
2020/12/03 12:42:49;;;;;;;22.73;14.83;;;9.20;80.70;;;;;;5104710;27;20158;-83
2020/12/03 12:45:15;;;;;;;22.57;13.33;;;9.20;80.60;;;;;;5086784;28;20058;-82
2020/12/03 12:47:41;;;;;;;17.70;13.00;;;9.50;80.50;;;;;;5076548;28;20048;-82
2020/12/03 12:50:07;;;;;;;15.57;12.27;;;9.20;80.30;;;;;;5072609;28;20036;-80
2020/12/03 12:52:32;;;;;;;17.53;12.13;;;9.20;80.50;;;;;;5070467;28;20773;-81
2020/12/03 12:54:59;;;;;;;17.60;11.77;;;9.20;80.60;;;;;;5087230;27;20119;-83
2020/12/03 12:57:27;;;;;;;17.87;10.57;;;9.20;80.40;;;;;;5104838;27;21897;-83
2020/12/03 12:59:52;;;;;;;16.33;11.33;;;9.20;80.10;;;;;;5070849;28;20040;-83
2020/12/03 13:02:19;;;;;;;15.90;10.90;;;9.20;79.90;;;;;;5076860;28;20058;-83
2020/12/03 13:05:04;;;;;;;13.70;9.63;;;9.20;80.00;;;;;;5093180;28;20039;-83
2020/12/03 13:07:31;;;;;;;13.70;9.10;;;9.20;80.20;;;;;;5096104;27;20024;-82
2020/12/03 13:10:18;;;;;;;13.20;9.50;;;9.20;80.10;;;;;;5075562;27;20117;-83
2020/12/03 13:13:03;;;;;;;12.80;9.17;;;9.20;79.60;;;;;;5066920;28;20046;-82
2020/12/03 13:15:29;;;;;;;12.70;8.70;;;9.20;79.60;;;;;;5070022;27;20040;-81
2020/12/03 13:18:15;;;;;;;10.27;8.07;;;9.20;79.80;;;;;;5077835;27;20048;-81
2020/12/03 13:20:40;;;;;;;11.63;8.47;;;9.20;80.00;;;;;;5086587;28;20038;-82
2020/12/03 13:23:06;;;;;;;13.87;8.97;;;9.20;79.60;;;;;;5056359;27;20040;-82
2020/12/03 13:25:32;;;;;;;10.40;8.73;;;9.20;79.60;;;;;;5086271;27;20067;-82
2020/12/03 13:28:18;;;;;;;11.27;8.43;;;9.20;79.20;;;;;;5074942;28;20044;-82
2020/12/03 13:31:04;;;;;;;12.97;10.10;;;9.20;79.20;;;;;;5069584;27;20483;-83
2020/12/03 13:33:53;;;;;;;12.50;8.83;;;9.20;79.10;;;;;;5074068;27;20457;-82
2020/12/03 13:36:39;;;;;;;12.50;9.37;;;9.20;79.30;;;;;;5076022;28;20052;-83
2020/12/03 13:39:05;;;;;;;13.17;9.73;;;9.10;79.10;;;;;;5084348;27;20101;-82